EW5898 Bow WA US current weather conditions

sailwx.info

Wind from 097

Air temperature 11.1° C
Dewpoint 10.3° C

Last reported at 2020-Aug-09 08:07 UTC.
Time now 2020-Aug-09 08:39 UTC

Location: N 48°32' W 122°22'.
View on Google Maps.

See reports from other nearby stations

  
Tides and Currents Weather Stations Pressure Air Temp Water Temp Dewpoint Dewpoint Depression Visibility Wind Speed Wind Dir Waves Ship Positions
date/time (UTC)wind fromknots sea level pressurealtimeterstation pressurevisibilityair tempwater tempwave heightnotes
2020-Aug-09 08:07 097 11.1
2020-Aug-09 07:57 106 11.1
2020-Aug-09 07:47 113 11.1
2020-Aug-09 07:37 113 11.1
2020-Aug-09 07:27 106 0 gusting 0 11.1
2020-Aug-09 07:17 106 11.1
2020-Aug-09 07:07 106 11.7
2020-Aug-09 06:57 106 0 gusting 1 11.7
2020-Aug-09 06:47 104 11.7
2020-Aug-09 06:37 103 11.7
2020-Aug-09 06:27 107 11.7
2020-Aug-09 06:17 109 0 gusting 0 11.7
2020-Aug-09 06:07 110 0 gusting 0 12.2
2020-Aug-09 05:57 117 12.2
2020-Aug-09 05:47 110 0 gusting 1 12.2
2020-Aug-09 05:37 123 12.8
2020-Aug-09 05:27 123 12.8
2020-Aug-09 05:17 123 12.8
2020-Aug-09 05:07 127 13.3
2020-Aug-09 04:57 127 13.3
2020-Aug-09 04:48 333 15.6
2020-Aug-09 04:38 344 15.0
2020-Aug-09 04:08 333 15.6
2020-Aug-09 03:47 333 15.6
2020-Aug-09 03:37 305 0 gusting 2 15.6
2020-Aug-09 03:27 289 1 gusting 3 17.2
2020-Aug-09 03:18 289 1 gusting 3 17.2
2020-Aug-09 03:07 307 1 gusting 4 18.3
2020-Aug-09 02:57 313 2 gusting 3 19.4
2020-Aug-09 02:37 309 1 gusting 3 19.4
2020-Aug-09 02:27 293 1 gusting 4 19.4
2020-Aug-09 02:17 316 2 gusting 6 20.0
2020-Aug-09 02:07 309 2 gusting 5 20.0
2020-Aug-09 01:57 290 1 gusting 5 20.0
2020-Aug-09 01:47 305 3 gusting 6 20.0
2020-Aug-09 01:37 307 3 gusting 7 20.0
2020-Aug-09 01:27 295 2 gusting 7 20.0
2020-Aug-09 01:17 303 3 gusting 8 20.0
2020-Aug-09 01:07 289 3 gusting 7 20.0
2020-Aug-09 00:57 276 3 gusting 8 20.6
2020-Aug-09 00:47 319 3 gusting 8 20.6
2020-Aug-09 00:37 307 4 gusting 9 20.6
2020-Aug-09 00:27 288 2 gusting 6 20.6
2020-Aug-09 00:17 295 2 gusting 7 20.0
2020-Aug-09 00:07 279 2 gusting 8 20.0
2020-Aug-08 23:57 326 3 gusting 7 20.0
2020-Aug-08 23:47 300 1 gusting 9 20.0
2020-Aug-08 23:37 290 3 gusting 8 20.0
2020-Aug-08 23:27 293 3 gusting 7 20.0
2020-Aug-08 23:17 298 3 gusting 8 19.4
2020-Aug-08 23:07 343 5 gusting 8 20.0
2020-Aug-08 22:57 329 3 gusting 9 19.4
2020-Aug-08 22:47 293 2 gusting 6 20.0
2020-Aug-08 22:37 329 1 gusting 5 19.4
2020-Aug-08 22:27 290 2 gusting 5 19.4
2020-Aug-08 22:17 312 2 gusting 6 18.9
2020-Aug-08 22:07 350 3 gusting 7 18.9
2020-Aug-08 21:57 323 2 gusting 9 18.9
2020-Aug-08 21:47 312 5 gusting 8 18.9
2020-Aug-08 21:37 331 4 gusting 8 19.4
2020-Aug-08 21:27 331 4 gusting 10 19.4
2020-Aug-08 21:17 329 3 gusting 7 19.4
2020-Aug-08 21:07 281 3 gusting 8 19.4
2020-Aug-08 20:57 340 4 gusting 8 19.4
2020-Aug-08 20:47 312 4 gusting 7 18.9
2020-Aug-08 20:37 296 18.3
2020-Aug-08 20:27 296 1 gusting 5 18.9
2020-Aug-08 20:17 300 4 gusting 6 19.4
2020-Aug-08 20:07 289 1 gusting 6 18.9
2020-Aug-08 19:57 278 1 gusting 4 18.3
2020-Aug-08 19:47 276 1 gusting 4 17.8
2020-Aug-08 19:37 295 1 gusting 4 17.8
2020-Aug-08 19:33 298 14.4
2020-Aug-08 19:27 312 18.3
2020-Aug-08 19:24 298 14.4
2020-Aug-08 19:19 109 15.6
2020-Aug-08 19:13 298 14.4
2020-Aug-08 19:08 021 17.2
2020-Aug-08 19:04 298 14.4
2020-Aug-08 19:00 082 0 gusting 1 16.7
2020-Aug-08 18:48 147 16.7
2020-Aug-08 18:27 082 0 gusting 1 16.7
2020-Aug-08 17:59 162 15.6
2020-Aug-08 14:57 298 14.4
2020-Aug-08 14:47 298 13.9
2020-Aug-08 14:27 298 13.9
2020-Aug-08 14:17 298 13.9
2020-Aug-08 14:07 298 13.9
2020-Aug-08 13:57 298 13.9
2020-Aug-08 13:47 298 13.9
2020-Aug-08 13:37 298 13.9
2020-Aug-08 13:27 298 13.9
2020-Aug-08 13:17 298 13.9
2020-Aug-08 13:07 298 13.9
2020-Aug-08 12:57 298 13.9
2020-Aug-08 12:47 288 0 gusting 1 13.9
2020-Aug-08 12:37 293 13.9
2020-Aug-08 12:27 292 13.9
2020-Aug-08 12:17 292 13.9
2020-Aug-08 12:07 286 13.9
2020-Aug-08 11:57 286 13.9
2020-Aug-08 11:47 285 13.9
2020-Aug-08 11:38 290 13.9
2020-Aug-08 11:29 290 13.9
2020-Aug-08 11:23 097 14.4
2020-Aug-08 11:19 097 14.4
2020-Aug-08 11:12 290 13.9
2020-Aug-08 07:07 063 15.0
2020-Aug-08 06:56 063 15.0
2020-Aug-08 06:46 063 15.0
2020-Aug-08 06:36 063 15.0
2020-Aug-08 06:26 063 15.0
2020-Aug-08 06:16 063 15.0
2020-Aug-08 06:06 063 15.0
2020-Aug-08 05:56 063 15.0
2020-Aug-08 05:46 063 15.0
2020-Aug-08 05:36 063 15.0
2020-Aug-08 05:26 063 15.0
2020-Aug-08 05:17 063 15.0
2020-Aug-08 05:07 063 15.0
2020-Aug-08 04:57 063 15.0
2020-Aug-08 04:36 065 15.0
2020-Aug-08 04:27 020 15.6
2020-Aug-08 03:47 011 0 gusting 1 15.6
2020-Aug-08 03:26 018 0 gusting 2 15.6
2020-Aug-08 03:18 085 16.1
2020-Aug-08 02:36 010 0 gusting 4 16.1
2020-Aug-08 02:26 025 1 gusting 6 16.7
2020-Aug-08 02:07 028 17.2
2020-Aug-08 01:47 001 0 gusting 2 17.8
2020-Aug-08 01:27 336 1 gusting 3 17.8
2020-Aug-08 01:07 336 1 gusting 3 17.8
2020-Aug-08 00:56 310 1 gusting 4 17.8
2020-Aug-08 00:36 293 1 gusting 3 18.3
2020-Aug-08 00:26 303 1 gusting 5 18.9
2020-Aug-08 00:16 293 1 gusting 5 19.4
2020-Aug-08 00:06 307 1 gusting 4 19.4
2020-Aug-07 23:56 320 2 gusting 5 19.4
2020-Aug-07 23:46 316 1 gusting 4 19.4
2020-Aug-07 23:36 323 3 gusting 4 19.4
2020-Aug-07 23:26 305 2 gusting 6 20.0
2020-Aug-07 23:16 340 3 gusting 7 20.0
2020-Aug-07 23:06 341 3 gusting 6 20.0
2020-Aug-07 22:56 293 4 gusting 7 20.0
2020-Aug-07 22:46 238 0 gusting 3 21.1
2020-Aug-07 22:37 238 0 gusting 3 21.1
2020-Aug-07 22:16 336 0 gusting 4 20.6
2020-Aug-07 22:07 336 0 gusting 4 20.6
2020-Aug-07 21:56 331 1 gusting 2 21.1
2020-Aug-07 21:36 104 20.6
2020-Aug-07 21:26 289 0 gusting 2 20.6
2020-Aug-07 21:16 290 20.6
2020-Aug-07 21:06 266 20.0
2020-Aug-07 20:56 309 0 gusting 6 20.6
2020-Aug-07 20:46 217 0 gusting 2 20.6
2020-Aug-07 20:36 337 2 gusting 4 20.0
2020-Aug-07 20:26 305 1 gusting 4 20.0
2020-Aug-07 20:16 333 0 gusting 4 20.0
2020-Aug-07 20:06 340 1 gusting 5 20.0
2020-Aug-07 19:56 334 1 gusting 3 20.0
2020-Aug-07 19:46 295 0 gusting 4 20.6
2020-Aug-07 19:36 300 1 gusting 4 20.6
2020-Aug-07 19:26 299 1 gusting 5 20.6
2020-Aug-07 19:16 288 0 gusting 6 20.0
2020-Aug-07 19:06 321 1 gusting 3 19.4
2020-Aug-07 18:56 028 2 gusting 5 19.4
2020-Aug-07 18:46 303 3 gusting 5 20.0
2020-Aug-07 18:36 316 2 gusting 5 20.6
2020-Aug-07 18:26 281 0 gusting 2 20.0
2020-Aug-07 18:16 281 0 gusting 2 20.0
2020-Aug-07 18:06 306 0 gusting 2 19.4
2020-Aug-07 17:56 306 0 gusting 2 19.4
2020-Aug-07 17:46 257 2 gusting 4 18.9
2020-Aug-07 17:36 257 2 gusting 4 18.9
2020-Aug-07 17:26 288 0 gusting 1 17.8
2020-Aug-07 17:16 288 0 gusting 1 17.8
2020-Aug-07 17:06 265 18.3
2020-Aug-07 16:56 314 18.3
2020-Aug-07 16:46 164 1 gusting 4 17.8
2020-Aug-07 16:36 264 18.3
2020-Aug-07 16:26 231 0 gusting 5 18.3
2020-Aug-07 16:16 093 2 gusting 5 18.3
2020-Aug-07 16:06 227 0 gusting 3 18.3
2020-Aug-07 15:56 093 0 gusting 4 17.8
2020-Aug-07 15:46 094 17.2
2020-Aug-07 15:36 133 1 gusting 4 16.7
2020-Aug-07 15:26 110 0 gusting 2 16.7
2020-Aug-07 15:16 144 1 gusting 2 15.6
2020-Aug-07 15:06 096 0 gusting 4 15.6
2020-Aug-07 14:56 234 0 gusting 1 15.0
2020-Aug-07 14:46 109 0 gusting 3 15.0
2020-Aug-07 14:36 090 14.4
2020-Aug-07 14:26 096 13.9
2020-Aug-07 14:16 097 13.9
2020-Aug-07 14:06 097 1 gusting 1 13.9
2020-Aug-07 13:56 124 13.9
2020-Aug-07 13:46 104 0 gusting 1 13.9
2020-Aug-07 13:36 127 0 gusting 1 13.9
2020-Aug-07 13:26 080 0 gusting 1 13.9
2020-Aug-07 13:16 087 0 gusting 6 13.9
2020-Aug-07 13:06 094 1 gusting 3 13.9
2020-Aug-07 12:56 138 13.9
2020-Aug-07 12:46 094 1 gusting 2 13.9
2020-Aug-07 12:36 137 13.9
2020-Aug-07 12:26 162 14.4
2020-Aug-07 12:16 089 1 gusting 2 14.4
2020-Aug-07 12:06 123 13.9
2020-Aug-07 11:56 165 13.9
2020-Aug-07 11:46 165 13.9
2020-Aug-07 11:36 090 13.9
2020-Aug-07 11:26 166 13.9
2020-Aug-07 11:16 083 13.9
2020-Aug-07 11:06 073 0 gusting 2 13.9
2020-Aug-07 10:56 097 13.9
2020-Aug-07 10:46 128 0 gusting 1 13.9
2020-Aug-07 10:36 078 0 gusting 3 13.9
2020-Aug-07 10:26 094 13.3
2020-Aug-07 10:16 155 0 gusting 2 13.3
2020-Aug-07 10:06 107 0 gusting 2 13.9
2020-Aug-07 09:56 113 0 gusting 1 13.9
2020-Aug-07 09:46 164 0 gusting 2 13.9
2020-Aug-07 09:36 247 0 gusting 3 13.9
2020-Aug-07 09:26 094 13.9
2020-Aug-07 09:16 109 0 gusting 1 13.9
2020-Aug-07 09:06 104 13.9
2020-Aug-07 08:56 096 1 gusting 3 13.9
2020-Aug-07 08:46 125 13.9
2020-Aug-07 08:36 154 0 gusting 2 13.9
2020-Aug-07 08:26 127 0 gusting 1 13.9
2020-Aug-07 08:16 100 13.9
2020-Aug-07 08:06 135 13.9